Time;durP1;ratioP1;P1;durP2;ratioP2;P2;SDS_P1;SDS_P2;PMS_P1;PMS_P2;Temp;Humidity;BMP_temperature;BMP_pressure;BME280_temperature;BME280_humidity;BME280_pressure;Samples;Min_cycle;Max_cycle;Signal;HPM_P1;HPM_P2
2023/09/20 00:01:36;;;;;;;5.37;2.30;;;;;19.30;100439.00;;;;4923361;29;20727;-71
2023/09/20 00:04:23;;;;;;;8.60;2.10;;;;;19.40;100450.00;;;;4909611;29;20280;-69
2023/09/20 00:07:12;;;;;;;5.13;2.20;;;;;19.30;100451.00;;;;4922353;29;20248;-72
2023/09/20 00:09:59;;;;;;;6.67;2.27;;;;;19.30;100455.00;;;;4926678;29;20601;-70
2023/09/20 00:12:45;;;;;;;7.40;2.10;;;;;19.30;100448.00;;;;4920422;29;20593;-69
2023/09/20 00:15:33;;;;;;;3.33;1.90;;;;;19.30;100443.00;;;;4914795;29;20306;-69
2023/09/20 00:18:20;;;;;;;5.27;1.80;;;;;19.40;100440.00;;;;4917101;29;20249;-72
2023/09/20 00:21:06;;;;;;;4.70;2.40;;;;;19.30;100443.00;;;;4923964;28;20230;-70
2023/09/20 00:23:53;;;;;;;7.20;2.10;;;;;19.30;100447.00;;;;4913223;29;20252;-71
2023/09/20 00:26:39;;;;;;;6.57;2.00;;;;;19.30;100451.00;;;;4913637;29;20232;-70
2023/09/20 00:29:26;;;;;;;5.33;2.27;;;;;19.30;100440.00;;;;4911318;28;20233;-71
2023/09/20 00:32:14;;;;;;;3.67;2.03;;;;;19.20;100438.00;;;;4919819;28;20239;-72
2023/09/20 00:35:01;;;;;;;5.43;2.10;;;;;19.20;100449.00;;;;4915294;28;20233;-68
2023/09/20 00:37:49;;;;;;;5.57;2.57;;;;;19.10;100451.00;;;;4919783;29;20738;-72
2023/09/20 00:40:37;;;;;;;3.60;1.97;;;;;19.10;100453.00;;;;4919774;28;20239;-68
2023/09/20 00:43:24;;;;;;;8.57;2.40;;;;;19.10;100456.00;;;;4909480;29;20237;-71
2023/09/20 00:46:12;;;;;;;5.23;2.20;;;;;19.00;100447.00;;;;4925324;29;20238;-72
2023/09/20 00:49:01;;;;;;;4.80;2.10;;;;;19.00;100460.00;;;;4923719;28;20240;-70
2023/09/20 00:51:48;;;;;;;3.87;2.03;;;;;19.00;100457.00;;;;4926945;28;20338;-70
2023/09/20 00:54:35;;;;;;;6.47;2.40;;;;;19.00;100454.00;;;;4924034;29;20293;-70
2023/09/20 00:57:22;;;;;;;4.43;1.87;;;;;19.00;100447.00;;;;4926585;29;20713;-72
2023/09/20 01:00:19;;;;;;;6.20;1.90;;;;;19.00;100443.00;;;;4929829;29;20228;-71
2023/09/20 01:03:07;;;;;;;8.73;2.23;;;;;19.00;100446.00;;;;4922097;28;20262;-72
2023/09/20 01:05:55;;;;;;;4.00;1.90;;;;;19.00;100448.00;;;;4925641;28;20237;-73
2023/09/20 01:08:42;;;;;;;3.80;2.10;;;;;19.00;100448.00;;;;4927533;29;20360;-72
2023/09/20 01:11:28;;;;;;;4.10;2.10;;;;;19.10;100444.00;;;;4925128;29;20372;-71
2023/09/20 01:14:15;;;;;;;4.13;2.00;;;;;19.00;100436.00;;;;4928913;29;21933;-72
2023/09/20 01:17:07;;;;;;;6.03;2.00;;;;;19.00;100436.00;;;;4918825;29;20246;-72
2023/09/20 01:19:54;;;;;;;4.33;2.00;;;;;18.90;100449.00;;;;4916364;29;20232;-69
2023/09/20 01:22:42;;;;;;;6.03;2.20;;;;;18.90;100445.00;;;;4924308;29;20276;-71
2023/09/20 01:25:31;;;;;;;4.90;1.90;;;;;18.90;100448.00;;;;4922416;28;20385;-71
2023/09/20 01:28:17;;;;;;;7.90;2.03;;;;;18.80;100440.00;;;;4916715;29;20702;-71
2023/09/20 01:31:04;;;;;;;3.77;1.93;;;;;18.70;100442.00;;;;4916794;29;20229;-70
2023/09/20 01:33:52;;;;;;;7.10;2.17;;;;;18.70;100436.00;;;;4915806;28;20644;-71
2023/09/20 01:36:41;;;;;;;5.50;1.93;;;;;18.70;100437.00;;;;4919771;29;20309;-70
2023/09/20 01:39:30;;;;;;;4.43;1.90;;;;;18.70;100435.00;;;;4920877;28;20257;-70
2023/09/20 01:42:17;;;;;;;4.23;2.30;;;;;18.70;100439.00;;;;4915021;29;20968;-70
2023/09/20 01:45:06;;;;;;;7.07;2.03;;;;;18.70;100439.00;;;;4919477;29;20242;-70
2023/09/20 01:47:54;;;;;;;7.90;2.10;;;;;18.60;100439.00;;;;4918136;28;20236;-71
2023/09/20 01:50:42;;;;;;;7.30;2.13;;;;;18.60;100435.00;;;;4926139;29;20710;-71
2023/09/20 01:53:28;;;;;;;6.47;2.33;;;;;18.70;100435.00;;;;4922135;29;20236;-70
2023/09/20 01:56:17;;;;;;;3.63;2.20;;;;;18.60;100437.00;;;;4923539;28;20244;-68
2023/09/20 01:59:05;;;;;;;4.77;1.90;;;;;18.60;100423.00;;;;4916268;29;20823;-70
2023/09/20 02:01:51;;;;;;;6.00;2.30;;;;;18.60;100421.00;;;;4913791;29;20336;-71
2023/09/20 02:04:37;;;;;;;6.30;2.30;;;;;18.60;100420.00;;;;4926287;28;20284;-70
2023/09/20 02:07:24;;;;;;;6.60;2.00;;;;;18.70;100420.00;;;;4915405;29;20236;-70
2023/09/20 02:10:13;;;;;;;7.97;2.10;;;;;18.60;100426.00;;;;4924997;29;20289;-71
2023/09/20 02:13:01;;;;;;;3.20;2.27;;;;;18.50;100419.00;;;;4924505;28;20721;-72
2023/09/20 02:15:47;;;;;;;5.57;2.20;;;;;18.50;100424.00;;;;4923970;28;20232;-71
2023/09/20 02:18:34;;;;;;;4.93;2.40;;;;;18.60;100414.00;;;;4924346;29;20298;-68
2023/09/20 02:21:21;;;;;;;3.40;2.20;;;;;18.60;100419.00;;;;4908036;29;20237;-70
2023/09/20 02:24:09;;;;;;;6.73;2.50;;;;;18.60;100415.00;;;;4928113;29;21055;-71
2023/09/20 02:26:55;;;;;;;4.27;2.00;;;;;18.70;100406.00;;;;4928522;29;20228;-70
2023/09/20 02:29:45;;;;;;;7.70;2.40;;;;;18.60;100412.00;;;;4913564;29;20229;-71
2023/09/20 02:32:31;;;;;;;5.73;2.10;;;;;18.60;100411.00;;;;4917452;29;20234;-71
2023/09/20 02:35:18;;;;;;;5.33;2.23;;;;;18.50;100412.00;;;;4913075;29;20241;-71
2023/09/20 02:38:05;;;;;;;7.07;2.40;;;;;18.50;100394.00;;;;4918592;29;20305;-70
2023/09/20 02:40:56;;;;;;;6.90;2.70;;;;;18.40;100398.00;;;;4909329;29;20798;-71
2023/09/20 02:43:43;;;;;;;6.27;2.60;;;;;18.40;100391.00;;;;4924668;29;20369;-70
2023/09/20 02:46:31;;;;;;;6.73;2.37;;;;;18.30;100394.00;;;;4925076;29;20305;-71
2023/09/20 02:49:17;;;;;;;5.47;2.23;;;;;18.40;100391.00;;;;4921353;29;20249;-71
2023/09/20 02:52:05;;;;;;;6.03;2.20;;;;;18.40;100385.00;;;;4915662;29;20237;-71
2023/09/20 02:54:52;;;;;;;6.07;2.70;;;;;18.40;100384.00;;;;4916872;29;20260;-71
2023/09/20 02:57:38;;;;;;;5.63;2.17;;;;;18.30;100389.00;;;;4914717;29;20329;-71
2023/09/20 03:00:27;;;;;;;8.20;2.67;;;;;18.30;100389.00;;;;4920681;29;20372;-70
2023/09/20 03:03:16;;;;;;;7.00;2.80;;;;;18.30;100384.00;;;;4916905;29;20753;-71
2023/09/20 03:06:09;;;;;;;7.07;2.43;;;;;18.30;100386.00;;;;4915404;28;20238;-70
2023/09/20 03:08:55;;;;;;;9.47;2.57;;;;;18.40;100389.00;;;;4920318;29;20241;-71
2023/09/20 03:11:41;;;;;;;3.93;2.17;;;;;18.30;100378.00;;;;4918942;29;20230;-71
2023/09/20 03:14:29;;;;;;;5.97;2.30;;;;;18.40;100371.00;;;;4919309;29;20240;-71
2023/09/20 03:17:16;;;;;;;7.53;2.50;;;;;18.40;100368.00;;;;4928096;29;20233;-72
2023/09/20 03:20:10;;;;;;;7.70;2.43;;;;;18.40;100367.00;;;;4921391;28;20225;-70
2023/09/20 03:22:59;;;;;;;5.13;2.40;;;;;18.30;100362.00;;;;4924669;29;20317;-70
2023/09/20 03:25:45;;;;;;;4.00;2.30;;;;;18.30;100357.00;;;;4924643;29;20317;-73
2023/09/20 03:28:32;;;;;;;7.93;2.60;;;;;18.30;100354.00;;;;4924147;29;20750;-69
2023/09/20 03:31:22;;;;;;;4.50;2.47;;;;;18.30;100356.00;;;;4925409;29;20806;-70
2023/09/20 03:34:10;;;;;;;9.33;2.70;;;;;18.30;100355.00;;;;4920544;29;20233;-71
2023/09/20 03:36:58;;;;;;;5.77;2.50;;;;;18.20;100360.00;;;;4924346;29;20241;-71
2023/09/20 03:39:46;;;;;;;4.53;2.20;;;;;18.10;100348.00;;;;4918042;29;20882;-70
2023/09/20 03:42:32;;;;;;;5.90;2.70;;;;;18.10;100355.00;;;;4926933;29;20653;-70
2023/09/20 03:45:19;;;;;;;6.60;2.53;;;;;18.10;100356.00;;;;4925171;29;21174;-72
2023/09/20 03:48:09;;;;;;;6.10;2.67;;;;;18.10;100342.00;;;;4915175;29;20306;-69
2023/09/20 03:50:56;;;;;;;6.83;2.40;;;;;18.10;100351.00;;;;4918985;29;20249;-71
2023/09/20 03:53:44;;;;;;;4.73;2.13;;;;;18.00;100354.00;;;;4924086;29;20308;-71
2023/09/20 03:56:30;;;;;;;5.00;2.20;;;;;18.10;100352.00;;;;4913418;29;20237;-66
2023/09/20 03:59:17;;;;;;;4.50;2.30;;;;;18.10;100341.00;;;;4910464;29;20224;-71
2023/09/20 04:02:04;;;;;;;4.60;2.27;;;;;18.00;100338.00;;;;4925189;29;20232;-71
2023/09/20 04:04:51;;;;;;;5.13;2.63;;;;;18.00;100344.00;;;;4924797;28;20276;-70
2023/09/20 04:07:37;;;;;;;5.27;2.60;;;;;18.00;100333.00;;;;4923262;29;20224;-70
2023/09/20 04:10:27;;;;;;;5.70;2.27;;;;;18.00;100325.00;;;;4922853;29;20244;-70
2023/09/20 04:13:14;;;;;;;5.43;2.47;;;;;17.90;100331.00;;;;4927603;29;20229;-71
2023/09/20 04:16:03;;;;;;;5.13;2.70;;;;;17.90;100340.00;;;;4917601;29;20245;-71
2023/09/20 04:18:50;;;;;;;6.67;2.20;;;;;17.70;100335.00;;;;4920039;28;20236;-71
2023/09/20 04:21:37;;;;;;;3.47;2.43;;;;;17.70;100339.00;;;;4918856;29;20252;-71
2023/09/20 04:24:23;;;;;;;3.67;2.47;;;;;17.70;100319.00;;;;4923966;29;20236;-68
2023/09/20 04:27:11;;;;;;;6.33;2.50;;;;;17.70;100319.00;;;;4913676;29;20245;-70
2023/09/20 04:29:57;;;;;;;4.27;2.50;;;;;17.70;100314.00;;;;4919034;29;20668;-71
2023/09/20 04:32:44;;;;;;;5.83;2.50;;;;;17.70;100320.00;;;;4913569;29;20233;-69
2023/09/20 04:35:30;;;;;;;7.53;2.60;;;;;17.60;100319.00;;;;4909814;29;20233;-69
2023/09/20 04:38:16;;;;;;;6.37;2.40;;;;;17.50;100313.00;;;;4912346;29;20826;-71
2023/09/20 04:41:03;;;;;;;5.07;2.70;;;;;17.50;100311.00;;;;4914755;28;20225;-70
2023/09/20 04:43:50;;;;;;;5.63;2.50;;;;;17.40;100316.00;;;;4918485;29;20233;-70
2023/09/20 04:46:39;;;;;;;3.93;2.30;;;;;17.50;100318.00;;;;4924669;29;20285;-70
2023/09/20 04:49:25;;;;;;;6.13;2.70;;;;;17.40;100308.00;;;;4914373;29;20248;-70
2023/09/20 04:52:15;;;;;;;3.43;2.27;;;;;17.50;100319.00;;;;4922089;29;20232;-70
2023/09/20 04:55:01;;;;;;;4.83;2.43;;;;;17.50;100321.00;;;;4923398;29;20249;-70
2023/09/20 04:57:48;;;;;;;3.97;2.60;;;;;17.60;100330.00;;;;4925520;29;20617;-71
2023/09/20 05:00:37;;;;;;;4.80;2.30;;;;;17.50;100322.00;;;;4912937;28;20228;-68
2023/09/20 05:03:25;;;;;;;5.50;2.33;;;;;17.50;100326.00;;;;4918117;29;20241;-69
2023/09/20 05:06:12;;;;;;;5.43;2.50;;;;;17.60;100333.00;;;;4916743;29;20274;-70
2023/09/20 05:08:59;;;;;;;6.73;2.63;;;;;17.50;100323.00;;;;4917813;29;20233;-70
2023/09/20 05:11:46;;;;;;;6.47;2.40;;;;;17.50;100340.00;;;;4912357;28;20245;-70
2023/09/20 05:14:32;;;;;;;6.20;2.43;;;;;17.40;100336.00;;;;4909697;29;20245;-71
2023/09/20 05:17:20;;;;;;;5.30;2.70;;;;;17.50;100343.00;;;;4922637;29;20247;-70
2023/09/20 05:20:08;;;;;;;6.10;2.20;;;;;17.50;100336.00;;;;4918697;29;20260;-71
2023/09/20 05:22:54;;;;;;;4.93;2.37;;;;;17.50;100341.00;;;;4918017;29;20236;-71
2023/09/20 05:25:41;;;;;;;6.93;2.60;;;;;17.50;100330.00;;;;4918777;29;20320;-69
2023/09/20 05:28:27;;;;;;;4.83;2.30;;;;;17.50;100332.00;;;;4916935;29;20295;-71
2023/09/20 05:31:15;;;;;;;6.53;2.80;;;;;17.50;100335.00;;;;4923119;29;20237;-68
2023/09/20 05:34:05;;;;;;;5.13;2.30;;;;;17.50;100320.00;;;;4915733;29;20229;-69
2023/09/20 05:36:53;;;;;;;4.17;2.60;;;;;17.40;100319.00;;;;4919921;29;20710;-69
2023/09/20 05:39:39;;;;;;;3.67;2.63;;;;;17.40;100320.00;;;;4918437;28;20749;-70
2023/09/20 05:42:28;;;;;;;7.90;2.47;;;;;17.40;100321.00;;;;4927761;29;20239;-71
2023/09/20 05:45:14;;;;;;;3.30;2.47;;;;;17.40;100311.00;;;;4926660;28;20236;-69
2023/09/20 05:48:02;;;;;;;6.30;2.70;;;;;17.40;100310.00;;;;4924804;29;20648;-69
2023/09/20 05:50:50;;;;;;;6.57;2.50;;;;;17.40;100315.00;;;;4926659;28;21132;-70
2023/09/20 05:53:38;;;;;;;6.57;2.87;;;;;17.50;100316.00;;;;4927107;28;20228;-70
2023/09/20 05:56:25;;;;;;;4.80;2.40;;;;;17.50;100319.00;;;;4926982;29;20244;-71
2023/09/20 05:59:12;;;;;;;4.57;2.40;;;;;17.50;100315.00;;;;4920799;29;20232;-70
2023/09/20 06:01:58;;;;;;;5.73;2.50;;;;;17.50;100308.00;;;;4924589;29;20325;-70
2023/09/20 06:04:45;;;;;;;2.77;2.33;;;;;17.60;100316.00;;;;4920139;28;20877;-70
2023/09/20 06:07:33;;;;;;;4.50;2.47;;;;;17.60;100314.00;;;;4920214;29;20970;-72
2023/09/20 06:10:22;;;;;;;5.20;2.20;;;;;17.50;100319.00;;;;4916576;29;20326;-71
2023/09/20 06:13:09;;;;;;;7.50;2.60;;;;;17.50;100318.00;;;;4924027;29;20241;-73
2023/09/20 06:15:55;;;;;;;4.60;2.57;;;;;17.50;100307.00;;;;4920450;29;20436;-72
2023/09/20 06:18:42;;;;;;;12.00;2.67;;;;;17.60;100308.00;;;;4923871;28;20225;-72
2023/09/20 06:21:49;;;;;;;6.33;2.30;;;;;17.70;100316.00;;;;4921806;29;20400;-71
2023/09/20 06:24:36;;;;;;;5.90;2.37;;;;;17.70;100316.00;;;;4930696;28;20606;-70
2023/09/20 06:27:22;;;;;;;6.40;2.43;;;;;17.70;100310.00;;;;4919424;29;20232;-71
2023/09/20 06:30:13;;;;;;;4.17;2.50;;;;;17.80;100305.00;;;;4923742;28;20245;-72
2023/09/20 06:33:00;;;;;;;7.93;2.33;;;;;17.80;100312.00;;;;4923155;29;20229;-71
2023/09/20 06:35:46;;;;;;;5.83;2.53;;;;;17.80;100304.00;;;;4927035;29;20440;-71
2023/09/20 06:38:34;;;;;;;4.53;2.20;;;;;17.90;100305.00;;;;4922224;28;20232;-71
2023/09/20 06:41:23;;;;;;;5.63;2.40;;;;;18.00;100303.00;;;;4915592;28;20366;-72
2023/09/20 06:44:12;;;;;;;5.67;2.47;;;;;18.10;100298.00;;;;4916337;29;20304;-72
2023/09/20 06:46:59;;;;;;;3.90;2.17;;;;;18.10;100303.00;;;;4920985;29;20229;-74
2023/09/20 06:49:46;;;;;;;5.10;2.33;;;;;18.10;100315.00;;;;4923059;28;20236;-73
2023/09/20 06:52:33;;;;;;;6.10;2.40;;;;;18.20;100307.00;;;;4922105;29;20241;-73
2023/09/20 06:55:19;;;;;;;4.53;2.17;;;;;18.30;100303.00;;;;4916708;29;20319;-72
2023/09/20 06:58:07;;;;;;;7.13;2.83;;;;;18.30;100308.00;;;;4924358;29;20333;-73
2023/09/20 07:01:06;;;;;;;4.13;2.20;;;;;18.40;100309.00;;;;4919366;28;20230;-73
2023/09/20 07:03:53;;;;;;;5.53;2.40;;;;;18.50;100297.00;;;;4925704;29;20228;-74
2023/09/20 07:06:40;;;;;;;3.67;2.47;;;;;18.60;100304.00;;;;4924941;28;20240;-72
2023/09/20 07:09:26;;;;;;;6.50;2.33;;;;;18.60;100304.00;;;;4919034;29;20801;-70
2023/09/20 07:12:12;;;;;;;8.33;2.40;;;;;18.60;100299.00;;;;4929216;29;20762;-72
2023/09/20 07:15:00;;;;;;;4.63;2.40;;;;;18.70;100296.00;;;;4915367;29;20244;-71
2023/09/20 07:17:58;;;;;;;6.13;2.50;;;;;18.70;100299.00;;;;4919705;29;20233;-71
2023/09/20 07:20:45;;;;;;;38.23;4.90;;;;;18.80;100312.00;;;;4925070;29;20253;-71
2023/09/20 07:23:31;;;;;;;2.60;2.30;;;;;18.80;100306.00;;;;4918099;29;20232;-72
2023/09/20 07:26:21;;;;;;;5.13;2.37;;;;;18.90;100310.00;;;;4922943;29;20274;-72
2023/09/20 07:29:08;;;;;;;4.60;2.17;;;;;18.90;100308.00;;;;4927785;29;20818;-72
2023/09/20 07:31:58;;;;;;;5.63;2.30;;;;;19.10;100294.00;;;;4926680;29;20739;-71
2023/09/20 07:34:48;;;;;;;7.07;2.43;;;;;19.20;100296.00;;;;4917097;29;20329;-71
2023/09/20 07:37:34;;;;;;;2.97;2.13;;;;;19.40;100299.00;;;;4928083;28;20260;-68
2023/09/20 07:40:21;;;;;;;3.00;2.00;;;;;19.40;100300.00;;;;4927637;28;20235;-70
2023/09/20 07:43:10;;;;;;;8.13;2.30;;;;;19.50;100292.00;;;;4921525;29;20424;-71
2023/09/20 07:46:08;;;;;;;5.70;2.37;;;;;19.60;100289.00;;;;4919060;29;20790;-71
2023/09/20 07:49:09;;;;;;;5.47;2.13;;;;;19.70;100305.00;;;;4917370;28;20244;-72
2023/09/20 07:51:55;;;;;;;3.37;2.20;;;;;19.70;100306.00;;;;4907395;29;20325;-72
2023/09/20 07:54:43;;;;;;;3.20;2.07;;;;;19.90;100291.00;;;;4924668;28;20237;-72
2023/09/20 07:57:30;;;;;;;2.40;2.20;;;;;19.90;100288.00;;;;4916117;28;20325;-68
2023/09/20 08:00:16;;;;;;;3.17;2.30;;;;;19.90;100295.00;;;;4917372;29;20228;-71
2023/09/20 08:03:05;;;;;;;5.03;2.20;;;;;19.80;100291.00;;;;4923484;28;20731;-71
2023/09/20 08:05:53;;;;;;;4.40;2.40;;;;;19.90;100295.00;;;;4924721;28;20242;-71
2023/09/20 08:08:40;;;;;;;5.53;2.10;;;;;19.90;100292.00;;;;4914115;29;20635;-72
2023/09/20 08:11:27;;;;;;;7.03;2.10;;;;;20.00;100290.00;;;;4922835;29;20245;-71
2023/09/20 08:14:14;;;;;;;3.30;2.20;;;;;20.00;100285.00;;;;4913659;28;20227;-71
2023/09/20 08:20:10;;;;;;;2.93;2.10;;;;;19.90;100299.00;;;;4926776;29;20246;-70
2023/09/20 08:59:56;;;;;;;4.87;2.00;;;;;20.30;100309.00;;;;4901713;29;20306;-72
2023/09/20 09:02:43;;;;;;;4.53;2.00;;;;;20.30;100311.00;;;;4911654;29;20239;-73
2023/09/20 09:05:30;;;;;;;6.13;2.20;;;;;20.50;100303.00;;;;4921575;29;20247;-72
2023/09/20 09:08:17;;;;;;;6.07;2.27;;;;;20.50;100308.00;;;;4913359;29;20286;-71
2023/09/20 09:11:05;;;;;;;7.10;2.07;;;;;20.60;100321.00;;;;4914662;29;20263;-71
2023/09/20 09:13:52;;;;;;;2.77;1.97;;;;;20.60;100320.00;;;;4912616;29;20818;-71
2023/09/20 09:16:40;;;;;;;3.70;1.90;;;;;20.60;100317.00;;;;4918264;29;20241;-73
2023/09/20 09:19:26;;;;;;;5.17;2.23;;;;;20.70;100318.00;;;;4924391;29;20236;-73
2023/09/20 09:22:14;;;;;;;3.27;1.93;;;;;20.70;100318.00;;;;4915669;29;20240;-69
2023/09/20 09:25:00;;;;;;;2.53;1.90;;;;;20.70;100318.00;;;;4919649;29;20251;-69
2023/09/20 09:27:47;;;;;;;4.83;2.10;;;;;20.70;100305.00;;;;4920077;29;20531;-71
2023/09/20 09:30:35;;;;;;;2.30;2.03;;;;;20.70;100305.00;;;;4919985;29;20257;-73
2023/09/20 09:33:25;;;;;;;3.63;2.00;;;;;20.80;100312.00;;;;4919672;28;20294;-72
2023/09/20 09:36:13;;;;;;;5.10;2.17;;;;;20.80;100313.00;;;;4924789;29;20243;-72
2023/09/20 09:39:10;;;;;;;3.53;1.90;;;;;20.80;100309.00;;;;4923085;28;20300;-72
2023/09/20 09:42:24;;;;;;;3.80;2.00;;;;;20.70;100301.00;;;;4919153;29;20258;-70
2023/09/20 09:45:12;;;;;;;7.00;2.00;;;;;20.70;100295.00;;;;4921110;29;20292;-75
2023/09/20 09:48:00;;;;;;;3.67;1.70;;;;;20.50;100278.00;;;;4913948;29;20756;-73
2023/09/20 09:50:53;;;;;;;2.60;1.70;;;;;20.60;100298.00;;;;4926377;28;20236;-71
2023/09/20 09:53:41;;;;;;;4.73;1.70;;;;;20.70;100289.00;;;;4919629;29;20238;-76
2023/09/20 09:56:28;;;;;;;5.60;1.90;;;;;20.90;100299.00;;;;4925100;29;20242;-72
2023/09/20 09:59:15;;;;;;;3.20;1.83;;;;;21.00;100300.00;;;;4921668;28;20291;-71
2023/09/20 10:02:04;;;;;;;5.63;2.10;;;;;21.00;100312.00;;;;4917007;29;20725;-73
2023/09/20 10:04:55;;;;;;;4.73;1.77;;;;;21.00;100314.00;;;;4916827;29;20725;-73
2023/09/20 10:07:45;;;;;;;5.37;1.80;;;;;21.00;100318.00;;;;4923895;29;20235;-72
2023/09/20 10:10:33;;;;;;;2.50;1.63;;;;;21.00;100305.00;;;;4924264;29;20594;-74
2023/09/20 10:13:19;;;;;;;3.77;2.10;;;;;21.10;100311.00;;;;4925042;29;20314;-73
2023/09/20 10:16:07;;;;;;;4.50;1.57;;;;;21.10;100308.00;;;;4924689;29;20236;-72
2023/09/20 10:18:57;;;;;;;3.83;2.10;;;;;21.10;100301.00;;;;4921986;29;20244;-71
2023/09/20 10:22:01;;;;;;;4.50;1.60;;;;;21.10;100305.00;;;;4917809;29;20286;-73
2023/09/20 10:24:53;;;;;;;2.20;1.70;;;;;21.10;100296.00;;;;4920404;29;20355;-71
2023/09/20 10:27:40;;;;;;;3.10;1.80;;;;;21.10;100295.00;;;;4916658;28;20232;-74
2023/09/20 10:30:28;;;;;;;2.47;1.73;;;;;21.20;100298.00;;;;4924686;28;20228;-73
2023/09/20 10:33:15;;;;;;;3.43;1.67;;;;;21.30;100290.00;;;;4925742;28;20396;-73
2023/09/20 10:36:06;;;;;;;2.33;1.70;;;;;21.20;100289.00;;;;4927855;29;20304;-71
2023/09/20 10:39:21;;;;;;;4.00;1.70;;;;;21.40;100285.00;;;;4924008;28;20902;-71
2023/09/20 10:42:12;;;;;;;3.17;1.50;;;;;21.80;100280.00;;;;4920143;29;20238;-73
2023/09/20 10:45:00;;;;;;;2.97;1.70;;;;;22.00;100280.00;;;;4926147;29;20241;-73
2023/09/20 10:47:49;;;;;;;2.30;1.30;;;;;22.20;100287.00;;;;4927723;29;20237;-74
2023/09/20 10:50:49;;;;;;;3.03;1.63;;;;;22.30;100276.00;;;;4928210;28;20411;-72
2023/09/20 10:53:57;;;;;;;2.53;1.90;;;;;22.10;100281.00;;;;4913631;29;20611;-72
2023/09/20 10:56:46;;;;;;;3.37;1.90;;;;;22.00;100271.00;;;;4918248;29;20296;-73
2023/09/20 10:59:34;;;;;;;3.17;1.77;;;;;22.20;100275.00;;;;4916215;29;20220;-74
2023/09/20 11:02:20;;;;;;;5.07;1.73;;;;;22.40;100260.00;;;;4917330;29;20348;-74
2023/09/20 11:05:07;;;;;;;2.37;1.50;;;;;22.60;100261.00;;;;4922002;28;20624;-75
2023/09/20 11:07:55;;;;;;;3.37;1.77;;;;;23.10;100254.00;;;;4917539;29;20361;-74
2023/09/20 11:10:45;;;;;;;3.50;1.70;;;;;23.40;100254.00;;;;4917933;29;20225;-71
2023/09/20 11:13:32;;;;;;;9.83;6.20;;;;;23.60;100260.00;;;;4925361;29;20256;-73
2023/09/20 11:16:20;;;;;;;3.77;2.47;;;;;23.50;100229.00;;;;4926709;29;20244;-74
2023/09/20 11:19:09;;;;;;;5.77;1.83;;;;;23.50;100240.00;;;;4923879;28;20256;-73
2023/09/20 11:21:55;;;;;;;2.50;1.70;;;;;23.60;100238.00;;;;4918659;29;20237;-73
2023/09/20 11:24:43;;;;;;;11.33;1.87;;;;;23.60;100231.00;;;;4917337;29;20253;-72
2023/09/20 11:27:34;;;;;;;5.07;2.00;;;;;23.80;100237.00;;;;4921055;28;20225;-74
2023/09/20 11:30:22;;;;;;;2.30;1.60;;;;;23.80;100249.00;;;;4920468;29;20233;-72
2023/09/20 11:33:26;;;;;;;6.27;1.87;;;;;23.80;100238.00;;;;4921639;28;20248;-72
2023/09/20 11:36:18;;;;;;;2.03;1.63;;;;;23.90;100244.00;;;;4923711;29;20301;-71
2023/09/20 11:39:05;;;;;;;3.87;1.90;;;;;24.00;100236.00;;;;4917723;28;20713;-72
2023/09/20 11:41:52;;;;;;;7.37;1.90;;;;;24.10;100222.00;;;;4912185;29;20768;-73
2023/09/20 11:44:39;;;;;;;9.67;2.17;;;;;24.20;100248.00;;;;4918690;29;20259;-72
2023/09/20 11:47:30;;;;;;;4.33;1.60;;;;;24.20;100231.00;;;;4911154;29;20842;-73
2023/09/20 11:50:17;;;;;;;3.10;1.60;;;;;24.30;100232.00;;;;4923227;28;20253;-73
2023/09/20 11:53:05;;;;;;;2.80;1.47;;;;;24.60;100229.00;;;;4918335;29;20373;-73
2023/09/20 11:55:54;;;;;;;6.33;1.70;;;;;24.70;100224.00;;;;4918826;29;20241;-73
2023/09/20 11:58:43;;;;;;;4.57;1.60;;;;;24.80;100225.00;;;;4920913;28;20228;-72
2023/09/20 12:01:31;;;;;;;2.80;1.60;;;;;24.80;100224.00;;;;4915811;28;20297;-73
2023/09/20 12:04:17;;;;;;;2.90;1.77;;;;;24.80;100208.00;;;;4921899;28;21023;-72
2023/09/20 12:07:07;;;;;;;3.53;1.50;;;;;24.90;100222.00;;;;4924469;29;20804;-72
2023/09/20 12:09:53;;;;;;;5.93;1.70;;;;;24.60;100223.00;;;;4916884;29;20237;-73
2023/09/20 12:12:40;;;;;;;6.00;1.83;;;;;24.40;100210.00;;;;4913660;29;20240;-72
2023/09/20 12:15:26;;;;;;;3.40;1.50;;;;;24.10;100223.00;;;;4918333;29;20286;-73
2023/09/20 12:18:14;;;;;;;3.17;1.50;;;;;23.80;100220.00;;;;4917599;29;20233;-73
2023/09/20 12:21:01;;;;;;;3.73;1.80;;;;;23.80;100217.00;;;;4913010;29;20610;-72
2023/09/20 12:23:49;;;;;;;2.80;1.70;;;;;23.90;100204.00;;;;4922778;29;20232;-73
2023/09/20 12:26:35;;;;;;;3.47;1.70;;;;;23.80;100213.00;;;;4918206;29;20228;-72
2023/09/20 12:29:21;;;;;;;3.67;1.40;;;;;24.00;100212.00;;;;4923117;29;20256;-73
2023/09/20 12:32:08;;;;;;;4.30;1.63;;;;;24.00;100214.00;;;;4914730;28;20317;-73
2023/09/20 12:34:55;;;;;;;7.17;1.67;;;;;24.00;100221.00;;;;4919571;28;20244;-71
2023/09/20 12:37:42;;;;;;;9.90;1.80;;;;;23.90;100218.00;;;;4916774;28;20228;-68
2023/09/20 12:40:29;;;;;;;4.50;1.40;;;;;24.00;100196.00;;;;4912672;29;20241;-73
2023/09/20 12:43:16;;;;;;;4.00;1.30;;;;;24.10;100199.00;;;;4927545;28;20232;-73
2023/09/20 12:46:03;;;;;;;2.17;1.23;;;;;24.20;100201.00;;;;4924487;29;20959;-73
2023/09/20 12:48:49;;;;;;;4.50;1.40;;;;;24.80;100226.00;;;;4919265;28;20308;-70
2023/09/20 12:51:37;;;;;;;4.00;1.50;;;;;24.80;100194.00;;;;4916643;29;20229;-74
2023/09/20 12:54:23;;;;;;;3.83;1.40;;;;;24.90;100184.00;;;;4917304;29;20371;-73
2023/09/20 12:57:10;;;;;;;4.40;1.50;;;;;24.50;100191.00;;;;4918862;29;20228;-73
2023/09/20 12:59:57;;;;;;;3.60;1.40;;;;;24.70;100190.00;;;;4921697;29;20873;-70
2023/09/20 13:02:45;;;;;;;3.35;1.40;;;;;24.80;100184.00;;;;4920373;29;20247;-73
2023/09/20 13:05:32;;;;;;;4.33;1.47;;;;;24.80;100186.00;;;;4913662;28;20256;-73
2023/09/20 13:08:21;;;;;;;2.63;1.25;;;;;25.00;100190.00;;;;4917043;29;21000;-72
2023/09/20 13:11:10;;;;;;;5.22;1.63;;;;;25.00;100174.00;;;;4918688;28;20232;-69
2023/09/20 13:13:56;;;;;;;3.27;1.50;;;;;25.00;100168.00;;;;4901034;29;20241;-71
2023/09/20 13:16:43;;;;;;;4.25;1.55;;;;;24.70;100179.00;;;;4919101;29;20721;-72
2023/09/20 13:19:30;;;;;;;5.47;1.67;;;;;24.70;100174.00;;;;4922141;29;20353;-72
2023/09/20 13:22:19;;;;;;;4.20;1.50;;;;;24.60;100172.00;;;;4909443;29;20315;-71
2023/09/20 13:25:09;;;;;;;2.15;1.50;;;;;24.60;100176.00;;;;4912949;29;20844;-72
2023/09/20 13:27:55;;;;;;;4.47;1.70;;;;;24.50;100173.00;;;;4922781;28;21004;-72
2023/09/20 13:30:42;;;;;;;2.78;1.45;;;;;24.50;100176.00;;;;4913195;28;20233;-72
2023/09/20 13:33:29;;;;;;;2.25;1.60;;;;;24.60;100165.00;;;;4915145;29;21019;-71
2023/09/20 13:36:15;;;;;;;2.03;1.50;;;;;24.60;100157.00;;;;4924542;29;20248;-72
2023/09/20 13:39:02;;;;;;;2.37;1.87;;;;;24.80;100152.00;;;;4920816;29;20276;-72
2023/09/20 13:41:49;;;;;;;4.40;1.77;;;;;25.00;100147.00;;;;4917996;29;20308;-72
2023/09/20 13:44:36;;;;;;;3.85;1.40;;;;;25.20;100143.00;;;;4918726;29;20240;-72
2023/09/20 13:47:22;;;;;;;2.63;1.52;;;;;25.30;100142.00;;;;4921268;28;20233;-72
2023/09/20 13:50:14;;;;;;;3.00;1.60;;;;;25.30;100143.00;;;;4915875;28;20229;-72
2023/09/20 13:53:01;;;;;;;4.87;1.60;;;;;25.10;100142.00;;;;4917841;29;20233;-73
2023/09/20 13:55:48;;;;;;;2.63;1.80;;;;;24.80;100133.00;;;;4926502;29;20240;-71
2023/09/20 13:58:36;;;;;;;2.22;1.60;;;;;24.60;100139.00;;;;4918095;29;20252;-72
2023/09/20 14:01:22;;;;;;;8.00;1.70;;;;;24.60;100126.00;;;;4930910;29;20345;-71
2023/09/20 14:04:09;;;;;;;5.57;2.03;;;;;24.50;100128.00;;;;4923632;28;20232;-71
2023/09/20 14:06:56;;;;;;;3.83;1.73;;;;;24.50;100130.00;;;;4919290;29;20309;-73
2023/09/20 14:09:42;;;;;;;4.77;1.47;;;;;24.50;100115.00;;;;4912940;29;20225;-72
2023/09/20 14:12:29;;;;;;;3.15;1.60;;;;;24.50;100126.00;;;;4925363;29;20236;-72
2023/09/20 14:15:19;;;;;;;2.40;1.80;;;;;24.60;100114.00;;;;4933257;28;20228;-74
2023/09/20 14:18:08;;;;;;;5.50;1.73;;;;;24.70;100109.00;;;;4938709;29;20240;-71
2023/09/20 14:20:54;;;;;;;4.97;1.77;;;;;24.90;100109.00;;;;4937839;29;20236;-73
2023/09/20 14:23:41;;;;;;;4.10;1.65;;;;;25.10;100104.00;;;;4934370;29;20701;-72
2023/09/20 14:26:28;;;;;;;3.63;1.97;;;;;25.10;100097.00;;;;4939186;29;20250;-73
2023/09/20 14:29:16;;;;;;;4.00;1.70;;;;;25.10;100096.00;;;;4931442;29;20258;-72
2023/09/20 14:32:04;;;;;;;5.00;1.60;;;;;25.10;100090.00;;;;4939049;29;20249;-74